createdAt,value
2022-11-16T00:02:18.801Z,11.20
2022-11-16T00:04:47.787Z,11.20
2022-11-16T00:07:18.237Z,11.10
2022-11-16T00:09:46.904Z,11.10
2022-11-16T00:28:45.713Z,11.00
2022-11-16T00:31:14.568Z,11.00
2022-11-16T00:33:43.286Z,11.00
2022-11-16T00:36:14.385Z,11.00
2022-11-16T00:38:43.704Z,11.00
2022-11-16T00:41:12.674Z,10.90
2022-11-16T00:43:41.405Z,11.00
2022-11-16T00:46:12.086Z,10.90
2022-11-16T00:48:40.946Z,10.90
2022-11-16T00:51:09.602Z,10.90
2022-11-16T00:53:38.428Z,10.90
2022-11-16T00:56:08.112Z,10.90
2022-11-16T00:58:37.015Z,10.90
2022-11-16T01:01:07.560Z,11.00
2022-11-16T01:03:38.617Z,10.90
2022-11-16T01:06:09.406Z,10.90
2022-11-16T01:08:39.021Z,11.00
2022-11-16T01:11:22.017Z,10.90
2022-11-16T01:13:50.752Z,10.90
2022-11-16T01:16:22.077Z,11.00
2022-11-16T01:18:53.988Z,10.90
2022-11-16T01:21:23.463Z,11.00
2022-11-16T01:23:52.695Z,11.00
2022-11-16T01:26:24.007Z,11.00
2022-11-16T01:28:52.823Z,11.00
2022-11-16T01:31:21.834Z,11.00
2022-11-16T01:33:52.328Z,11.00
2022-11-16T01:36:20.972Z,11.00
2022-11-16T01:38:50.913Z,11.00
2022-11-16T01:41:21.303Z,11.00
2022-11-16T01:43:59.114Z,11.00
2022-11-16T01:46:29.361Z,11.00
2022-11-16T01:49:04.766Z,11.00
2022-11-16T01:51:34.819Z,11.00
2022-11-16T01:54:06.581Z,10.90
2022-11-16T01:56:38.090Z,10.90
2022-11-16T01:59:07.296Z,11.00
2022-11-16T02:01:38.340Z,10.90
2022-11-16T02:04:11.445Z,10.90
2022-11-16T02:07:00.607Z,10.90
2022-11-16T02:09:55.489Z,10.90
2022-11-16T02:12:55.468Z,11.00
2022-11-16T02:15:29.406Z,11.00
2022-11-16T02:18:14.925Z,10.90
2022-11-16T02:20:59.459Z,10.90
2022-11-16T02:24:13.580Z,10.90
2022-11-16T02:27:23.770Z,10.90
2022-11-16T02:29:55.134Z,10.90
2022-11-16T02:32:30.329Z,10.90
2022-11-16T02:35:04.181Z,10.90
2022-11-16T02:37:39.239Z,10.90
2022-11-16T02:40:12.330Z,11.00
2022-11-16T02:42:43.609Z,11.00
2022-11-16T02:45:19.317Z,11.00
2022-11-16T02:47:50.118Z,11.00
2022-11-16T02:50:21.570Z,11.00
2022-11-16T02:52:50.542Z,11.00
2022-11-16T02:55:20.619Z,11.00
2022-11-16T02:57:55.672Z,11.00
2022-11-16T03:00:28.430Z,11.00
2022-11-16T03:03:08.229Z,10.90
2022-11-16T03:05:40.705Z,10.90
2022-11-16T03:08:17.833Z,10.90
2022-11-16T03:11:08.197Z,10.90
2022-11-16T03:13:38.763Z,10.90
2022-11-16T03:16:14.877Z,10.90
2022-11-16T03:18:45.826Z,10.90
2022-11-16T03:21:20.367Z,10.90
2022-11-16T03:23:49.052Z,10.90
2022-11-16T03:26:22.722Z,10.90
2022-11-16T03:28:56.930Z,10.90
2022-11-16T03:31:30.978Z,10.90
2022-11-16T03:34:03.896Z,10.90
2022-11-16T03:36:36.140Z,10.90
2022-11-16T03:39:10.899Z,10.90
2022-11-16T03:41:42.813Z,11.00
2022-11-16T03:44:14.060Z,11.00
2022-11-16T03:46:45.799Z,11.00
2022-11-16T03:49:14.378Z,10.90
2022-11-16T03:51:43.047Z,10.90
2022-11-16T03:54:11.704Z,10.90
2022-11-16T03:56:40.495Z,10.90
2022-11-16T03:59:11.652Z,10.90
2022-11-16T04:01:44.528Z,11.00
2022-11-16T04:04:36.432Z,11.00
2022-11-16T04:07:22.311Z,11.00
2022-11-16T04:10:08.607Z,11.00
2022-11-16T04:12:54.619Z,10.90
2022-11-16T04:15:40.964Z,10.90
2022-11-16T04:18:28.570Z,11.00
2022-11-16T04:21:16.611Z,11.00
2022-11-16T04:24:03.730Z,11.00
2022-11-16T04:26:46.384Z,11.00
2022-11-16T04:29:15.707Z,11.00
2022-11-16T04:32:01.601Z,10.90
2022-11-16T04:34:47.901Z,10.90
2022-11-16T04:37:37.207Z,11.00
2022-11-16T04:40:07.111Z,11.00
2022-11-16T04:42:35.968Z,11.00
2022-11-16T04:45:21.916Z,11.00
2022-11-16T04:47:50.798Z,11.00
2022-11-16T04:50:20.748Z,11.00
2022-11-16T04:52:51.515Z,11.00
2022-11-16T04:55:20.052Z,11.00
2022-11-16T04:57:48.824Z,11.00
2022-11-16T05:00:18.320Z,11.00
2022-11-16T05:02:46.849Z,11.00
2022-11-16T05:05:15.952Z,11.00
2022-11-16T05:07:45.207Z,11.00
2022-11-16T05:10:15.687Z,10.90
2022-11-16T05:12:44.260Z,10.90
2022-11-16T05:15:13.106Z,11.00
2022-11-16T05:17:41.652Z,11.00
2022-11-16T05:20:29.257Z,11.00
2022-11-16T05:22:59.303Z,10.90
2022-11-16T05:25:35.298Z,10.90
2022-11-16T05:28:05.090Z,10.90
2022-11-16T05:30:33.864Z,10.90
2022-11-16T05:33:02.607Z,10.90
2022-11-16T05:35:31.212Z,10.90
2022-11-16T05:37:59.809Z,10.90
2022-11-16T05:40:29.758Z,10.90
2022-11-16T05:42:59.524Z,10.90
2022-11-16T05:45:28.340Z,10.90
2022-11-16T05:47:56.898Z,10.80
2022-11-16T05:50:25.877Z,10.80
2022-11-16T05:52:54.558Z,10.80
2022-11-16T05:55:23.101Z,10.80
2022-11-16T05:57:53.122Z,10.80
2022-11-16T06:00:22.145Z,10.80
2022-11-16T06:02:50.662Z,10.80
2022-11-16T06:05:19.632Z,10.90
2022-11-16T06:07:49.112Z,10.80
2022-11-16T06:10:17.736Z,10.90
2022-11-16T06:12:46.222Z,10.90
2022-11-16T06:15:17.728Z,10.90
2022-11-16T06:17:46.324Z,10.80
2022-11-16T06:20:15.270Z,10.90
2022-11-16T06:22:43.918Z,10.90
2022-11-16T06:25:12.701Z,10.90
2022-11-16T06:27:41.263Z,10.90
2022-11-16T06:30:10.559Z,10.90
2022-11-16T06:32:40.549Z,10.90
2022-11-16T06:35:10.185Z,10.80
2022-11-16T06:37:41.607Z,10.80
2022-11-16T06:40:12.330Z,10.90
2022-11-16T06:42:40.853Z,10.80
2022-11-16T06:45:10.505Z,10.80
2022-11-16T06:47:40.642Z,10.80
2022-11-16T06:50:09.908Z,10.80
2022-11-16T06:52:38.501Z,10.80
2022-11-16T06:55:07.988Z,10.80
2022-11-16T06:57:36.473Z,10.80
2022-11-16T07:00:06.294Z,10.80
2022-11-16T07:02:34.950Z,10.80
2022-11-16T07:05:05.233Z,10.70
2022-11-16T07:07:34.295Z,10.80
2022-11-16T07:10:03.260Z,10.70
2022-11-16T07:12:31.789Z,10.70
2022-11-16T07:15:00.369Z,10.80
2022-11-16T07:17:28.942Z,10.70
2022-11-16T07:19:57.449Z,10.80
2022-11-16T07:22:27.511Z,10.80
2022-11-16T07:24:56.124Z,10.80
2022-11-16T07:27:25.088Z,10.80
2022-11-16T07:29:53.645Z,10.80
2022-11-16T07:32:22.272Z,10.80
2022-11-16T07:34:50.719Z,10.70
2022-11-16T07:37:19.559Z,10.80
2022-11-16T07:39:50.905Z,10.80
2022-11-16T07:42:19.464Z,10.80
2022-11-16T07:44:48.068Z,10.80
2022-11-16T07:47:16.686Z,10.80
2022-11-16T07:49:45.158Z,10.80
2022-11-16T07:52:13.994Z,10.90
2022-11-16T07:54:42.691Z,10.90
2022-11-16T07:57:12.646Z,10.90
2022-11-16T07:59:43.100Z,10.90
2022-11-16T08:02:11.758Z,10.90
2022-11-16T08:04:40.412Z,10.90
2022-11-16T08:07:09.256Z,10.90
2022-11-16T08:09:40.956Z,10.90
2022-11-16T08:12:09.637Z,10.90
2022-11-16T08:14:39.728Z,10.80
2022-11-16T08:17:08.668Z,10.80
2022-11-16T08:19:37.684Z,10.80
2022-11-16T08:22:06.457Z,10.80
2022-11-16T08:24:35.407Z,10.70
2022-11-16T08:27:04.230Z,10.70
2022-11-16T08:29:33.579Z,10.70
2022-11-16T08:32:05.218Z,10.70
2022-11-16T08:34:34.816Z,10.70
2022-11-16T08:37:03.388Z,10.70
2022-11-16T08:39:32.434Z,10.70
2022-11-16T08:42:01.006Z,10.70
2022-11-16T08:44:29.603Z,10.70
2022-11-16T08:46:58.234Z,10.80
2022-11-16T08:49:30.507Z,10.70
2022-11-16T08:51:59.298Z,10.70
2022-11-16T08:54:30.397Z,10.80
2022-11-16T08:57:01.879Z,10.80
2022-11-16T08:59:30.537Z,10.80
2022-11-16T09:01:59.214Z,10.90
2022-11-16T09:04:34.103Z,10.90
2022-11-16T09:07:05.468Z,10.90
2022-11-16T09:09:34.153Z,10.90
2022-11-16T09:12:03.049Z,10.90
2022-11-16T09:14:31.812Z,10.90
2022-11-16T09:17:00.712Z,10.80
2022-11-16T09:19:31.116Z,10.90
2022-11-16T09:21:59.643Z,10.90
2022-11-16T09:24:28.341Z,10.80
2022-11-16T09:27:04.418Z,10.80
2022-11-16T09:29:36.851Z,10.70
2022-11-16T09:32:06.327Z,10.70
2022-11-16T09:34:37.486Z,10.70
2022-11-16T09:37:06.466Z,10.60
2022-11-16T09:39:35.342Z,10.60
2022-11-16T09:42:17.906Z,10.60
2022-11-16T09:45:08.588Z,10.50
2022-11-16T09:47:44.692Z,10.50
2022-11-16T09:50:28.669Z,10.50
2022-11-16T09:53:01.496Z,10.50
2022-11-16T09:55:34.715Z,10.60
2022-11-16T09:58:10.233Z,10.70
2022-11-16T10:00:42.979Z,10.80
2022-11-16T10:03:14.041Z,10.80
2022-11-16T10:05:49.651Z,10.80
2022-11-16T10:08:23.012Z,10.90
2022-11-16T10:10:59.680Z,11.00
2022-11-16T10:13:39.970Z,11.10
2022-11-16T10:16:15.543Z,11.10
2022-11-16T10:18:55.558Z,11.10
2022-11-16T10:21:39.936Z,11.10
2022-11-16T10:24:27.919Z,11.00
2022-11-16T10:27:09.488Z,11.00
2022-11-16T10:29:49.480Z,10.90
2022-11-16T10:32:28.416Z,10.80
2022-11-16T10:35:01.143Z,10.80
2022-11-16T10:37:34.587Z,10.60
2022-11-16T10:40:17.914Z,10.60
2022-11-16T10:42:52.509Z,10.50
2022-11-16T10:45:26.719Z,10.40
2022-11-16T10:48:02.057Z,10.40
2022-11-16T10:50:41.855Z,10.40
2022-11-16T10:53:17.901Z,10.30
2022-11-16T10:55:47.015Z,10.30
2022-11-16T10:58:15.883Z,10.30
2022-11-16T11:00:49.898Z,10.40
2022-11-16T11:03:32.105Z,10.30
2022-11-16T11:06:02.014Z,10.30
2022-11-16T11:08:32.919Z,10.30
2022-11-16T11:11:24.041Z,10.30
2022-11-16T11:14:10.789Z,10.30
2022-11-16T11:16:42.450Z,10.50
2022-11-16T11:19:26.007Z,10.60
2022-11-16T11:21:58.806Z,10.60
2022-11-16T11:24:43.862Z,10.80
2022-11-16T11:27:13.762Z,10.80
2022-11-16T11:29:44.810Z,10.90
2022-11-16T11:32:22.610Z,10.90
2022-11-16T11:34:55.248Z,10.90
2022-11-16T11:37:27.464Z,10.90
2022-11-16T11:40:23.062Z,10.90
2022-11-16T11:43:00.379Z,10.90
2022-11-16T11:45:42.461Z,10.90
2022-11-16T11:48:26.306Z,10.90
2022-11-16T11:50:58.641Z,11.00
2022-11-16T11:53:40.888Z,11.00
2022-11-16T11:56:12.996Z,11.00
2022-11-16T11:58:43.047Z,11.00
2022-11-16T12:01:39.135Z,10.90
2022-11-16T12:04:46.621Z,10.90
2022-11-16T12:07:26.929Z,10.90
2022-11-16T12:10:01.007Z,10.80
2022-11-16T12:12:45.043Z,10.80
2022-11-16T12:15:36.189Z,10.90
2022-11-16T12:18:18.193Z,11.00
2022-11-16T12:20:56.015Z,11.00
2022-11-16T12:23:54.734Z,11.10
2022-11-16T12:26:34.213Z,11.20
2022-11-16T12:29:21.487Z,11.10
2022-11-16T12:32:10.749Z,11.00
2022-11-16T12:34:54.061Z,11.00
2022-11-16T12:37:32.448Z,11.10
2022-11-16T12:40:31.821Z,11.10
2022-11-16T12:43:09.150Z,11.10
2022-11-16T12:46:00.119Z,11.10
2022-11-16T12:48:56.155Z,11.00
2022-11-16T12:51:39.373Z,11.00
2022-11-16T12:54:38.675Z,10.90
2022-11-16T12:57:21.239Z,11.00
2022-11-16T13:00:05.431Z,10.90
2022-11-16T13:03:01.796Z,11.00
2022-11-16T13:05:42.892Z,11.00
2022-11-16T13:08:21.756Z,11.10
2022-11-16T13:11:03.509Z,11.10
2022-11-16T13:13:37.106Z,11.20
2022-11-16T13:16:08.183Z,11.30
2022-11-16T13:18:42.953Z,11.30
2022-11-16T13:21:26.939Z,11.30
2022-11-16T13:24:06.624Z,11.30
2022-11-16T13:26:43.622Z,11.20
2022-11-16T13:29:20.667Z,11.20
2022-11-16T13:31:58.672Z,11.20
2022-11-16T13:34:33.809Z,11.20
2022-11-16T13:37:04.691Z,11.20
2022-11-16T13:40:16.162Z,11.10
2022-11-16T13:42:47.126Z,11.10
2022-11-16T13:45:22.395Z,11.10
2022-11-16T13:47:52.732Z,11.10
2022-11-16T13:50:37.693Z,11.00
2022-11-16T13:56:01.083Z,11.10
2022-11-16T13:58:34.859Z,11.10
2022-11-16T14:01:09.092Z,11.10
2022-11-16T14:03:44.223Z,11.00
2022-11-16T14:06:52.593Z,11.00
2022-11-16T14:09:50.374Z,11.00
2022-11-16T14:13:00.313Z,10.90
2022-11-16T14:15:35.607Z,10.90
2022-11-16T14:18:38.361Z,10.90
2022-11-16T14:21:17.973Z,10.90
2022-11-16T14:24:06.743Z,10.90
2022-11-16T14:26:50.628Z,10.90
2022-11-16T14:29:45.387Z,10.90
2022-11-16T14:32:23.781Z,10.90
2022-11-16T14:34:58.881Z,11.00
2022-11-16T14:37:39.032Z,10.90
2022-11-16T14:40:19.557Z,10.90
2022-11-16T14:43:15.511Z,10.90
2022-11-16T14:45:50.378Z,11.00
2022-11-16T14:48:22.592Z,10.90
2022-11-16T14:51:06.761Z,10.90
2022-11-16T14:53:40.100Z,11.00
2022-11-16T14:56:15.604Z,11.00
2022-11-16T14:58:56.133Z,11.00
2022-11-16T15:01:29.135Z,11.00
2022-11-16T15:04:03.566Z,11.00
2022-11-16T15:06:40.132Z,11.00
2022-11-16T15:09:09.475Z,11.10
2022-11-16T15:12:00.679Z,11.10
2022-11-16T15:14:34.499Z,11.10
2022-11-16T15:17:09.864Z,11.10
2022-11-16T15:19:41.030Z,11.10
2022-11-16T15:22:19.024Z,11.10
2022-11-16T15:24:57.560Z,11.00
2022-11-16T15:27:37.048Z,11.00
2022-11-16T15:30:17.872Z,10.90
2022-11-16T15:32:50.744Z,10.90
2022-11-16T15:35:23.300Z,10.80
2022-11-16T15:38:07.467Z,10.70
2022-11-16T15:40:37.372Z,10.70
2022-11-16T15:43:11.419Z,10.60
2022-11-16T15:45:43.664Z,10.60
2022-11-16T15:48:20.167Z,10.50
2022-11-16T15:51:08.420Z,10.50
2022-11-16T15:53:39.617Z,10.50
2022-11-16T15:56:13.956Z,10.50
2022-11-16T15:58:46.661Z,10.50
2022-11-16T16:01:19.044Z,10.50
2022-11-16T16:03:58.610Z,10.60
2022-11-16T16:06:48.405Z,10.60
2022-11-16T16:09:30.853Z,10.70
2022-11-16T16:12:19.283Z,10.70
2022-11-16T16:14:52.112Z,10.70
2022-11-16T16:17:26.939Z,10.70
2022-11-16T16:19:58.073Z,10.70
2022-11-16T16:22:30.090Z,10.60
2022-11-16T16:25:00.961Z,10.60
2022-11-16T16:27:32.970Z,10.60
2022-11-16T16:30:10.955Z,10.50
2022-11-16T16:32:42.135Z,10.50
2022-11-16T16:35:19.070Z,10.40
2022-11-16T16:37:51.507Z,10.40
2022-11-16T16:40:23.255Z,10.40
2022-11-16T16:42:53.510Z,10.30
2022-11-16T16:45:33.471Z,10.20
2022-11-16T16:48:03.994Z,10.20
2022-11-16T16:50:33.777Z,10.10
2022-11-16T16:53:03.176Z,10.10
2022-11-16T16:55:37.032Z,10.20
2022-11-16T16:58:07.314Z,10.20
2022-11-16T17:00:37.788Z,10.30
2022-11-16T17:03:10.146Z,10.30
2022-11-16T17:05:39.829Z,10.30
2022-11-16T17:08:09.247Z,10.30
2022-11-16T17:10:40.119Z,10.40
2022-11-16T17:13:10.960Z,10.40
2022-11-16T17:15:41.153Z,10.40
2022-11-16T17:18:12.294Z,10.40
2022-11-16T17:20:59.797Z,10.40
2022-11-16T17:23:31.056Z,10.40
2022-11-16T17:26:11.664Z,10.40
2022-11-16T17:28:40.910Z,10.30
2022-11-16T17:31:17.126Z,10.30
2022-11-16T17:33:57.869Z,10.30
2022-11-16T17:36:27.113Z,10.20
2022-11-16T17:38:56.459Z,10.20
2022-11-16T17:41:25.934Z,10.20
2022-11-16T17:43:55.884Z,10.20
2022-11-16T17:46:28.897Z,10.30
2022-11-16T17:49:00.088Z,10.30
2022-11-16T17:51:31.194Z,10.30
2022-11-16T17:54:01.184Z,10.30
2022-11-16T17:56:32.969Z,10.30
2022-11-16T17:59:05.880Z,10.30
2022-11-16T18:01:35.035Z,10.30
2022-11-16T18:04:05.821Z,10.30
2022-11-16T18:06:37.210Z,10.30
2022-11-16T18:09:06.425Z,10.30
2022-11-16T18:11:39.745Z,10.30
2022-11-16T18:14:11.012Z,10.30
2022-11-16T18:16:43.711Z,10.30
2022-11-16T18:19:19.941Z,10.30
2022-11-16T18:21:52.156Z,10.30
2022-11-16T18:24:21.435Z,10.40
2022-11-16T18:26:54.316Z,10.40
2022-11-16T18:29:23.811Z,10.40
2022-11-16T18:32:01.718Z,10.40
2022-11-16T18:34:32.904Z,10.30
2022-11-16T18:37:02.733Z,10.30
2022-11-16T18:39:34.665Z,10.20
2022-11-16T18:42:05.501Z,10.10
2022-11-16T18:44:40.327Z,10.10
2022-11-16T18:47:32.712Z,10.00
2022-11-16T18:50:11.673Z,9.90
2022-11-16T18:52:46.023Z,9.90
2022-11-16T18:55:15.518Z,9.90
2022-11-16T18:57:44.756Z,9.80
2022-11-16T19:00:16.656Z,9.80
2022-11-16T19:02:46.265Z,9.80
2022-11-16T19:05:21.690Z,9.80
2022-11-16T19:07:50.655Z,9.70
2022-11-16T19:10:19.932Z,9.70
2022-11-16T19:12:50.559Z,9.70
2022-11-16T19:15:26.423Z,9.70
2022-11-16T19:18:19.716Z,9.60
2022-11-16T19:20:47.180Z,9.50
2022-11-16T19:23:16.720Z,9.50
2022-11-16T19:25:46.151Z,9.50
2022-11-16T19:28:16.198Z,9.50
2022-11-16T19:30:45.528Z,9.50
2022-11-16T19:33:16.805Z,9.50
2022-11-16T19:35:51.324Z,9.50
2022-11-16T19:38:20.203Z,9.40
2022-11-16T19:40:55.372Z,9.40
2022-11-16T19:43:24.548Z,9.40
2022-11-16T19:45:57.874Z,9.40
2022-11-16T19:48:27.213Z,9.40
2022-11-16T19:50:58.836Z,9.40
2022-11-16T19:53:29.287Z,9.40
2022-11-16T19:56:05.675Z,9.50
2022-11-16T19:58:37.328Z,9.50
2022-11-16T20:01:10.582Z,9.50
2022-11-16T20:03:40.673Z,9.50
2022-11-16T20:06:13.043Z,9.50
2022-11-16T20:08:46.426Z,9.50
2022-11-16T20:11:18.437Z,9.50
2022-11-16T20:13:47.569Z,9.50
2022-11-16T20:16:18.014Z,9.50
2022-11-16T20:18:51.205Z,9.50
2022-11-16T20:21:26.061Z,9.50
2022-11-16T20:24:06.151Z,9.60
2022-11-16T20:26:37.462Z,9.50
2022-11-16T20:29:06.572Z,9.50
2022-11-16T20:31:36.391Z,9.50
2022-11-16T20:34:11.691Z,9.50
2022-11-16T20:36:43.866Z,9.50
2022-11-16T20:39:15.520Z,9.50
2022-11-16T20:41:45.392Z,9.50
2022-11-16T20:44:19.416Z,9.50
2022-11-16T20:46:48.659Z,9.50
2022-11-16T20:49:18.722Z,9.50
2022-11-16T20:51:50.680Z,9.50
2022-11-16T20:54:20.663Z,9.50
2022-11-16T20:56:50.841Z,9.50
2022-11-16T20:59:20.420Z,9.50
2022-11-16T21:01:54.098Z,9.50
2022-11-16T21:04:23.688Z,9.50
2022-11-16T21:06:54.622Z,9.50
2022-11-16T21:09:29.676Z,9.50
2022-11-16T21:12:16.115Z,9.60
2022-11-16T21:14:44.936Z,9.60
2022-11-16T21:17:14.252Z,9.70
2022-11-16T21:19:59.570Z,9.70
2022-11-16T21:22:33.818Z,9.70
2022-11-16T21:25:03.728Z,9.70
2022-11-16T21:27:32.899Z,9.70
2022-11-16T21:30:03.409Z,9.70
2022-11-16T21:32:33.048Z,9.70
2022-11-16T21:35:02.138Z,9.70
2022-11-16T21:37:32.445Z,9.70
2022-11-16T21:40:02.318Z,9.70
2022-11-16T21:42:31.579Z,9.70
2022-11-16T21:45:00.349Z,9.70
2022-11-16T21:47:29.544Z,9.70
2022-11-16T21:50:30.733Z,9.70
2022-11-16T21:52:52.103Z,9.70
2022-11-16T21:55:21.368Z,9.70
2022-11-16T21:57:50.488Z,9.80
2022-11-16T22:00:21.916Z,9.80
2022-11-16T22:02:50.914Z,9.80
2022-11-16T22:05:36.914Z,9.90
2022-11-16T22:08:09.831Z,9.90
2022-11-16T22:10:40.338Z,9.80
2022-11-16T22:13:09.361Z,9.90
2022-11-16T22:15:39.444Z,9.90
2022-11-16T22:18:08.331Z,9.90
2022-11-16T22:20:37.730Z,9.90
2022-11-16T22:23:10.306Z,9.90
2022-11-16T22:25:39.101Z,9.90
2022-11-16T22:28:23.670Z,9.90
2022-11-16T22:31:01.076Z,9.90
2022-11-16T22:33:31.786Z,9.90
2022-11-16T22:36:00.937Z,9.90
2022-11-16T22:38:31.163Z,9.90
2022-11-16T22:41:00.384Z,9.90
2022-11-16T22:43:32.867Z,9.90
2022-11-16T22:46:04.590Z,10.00
2022-11-16T22:48:34.289Z,9.90
2022-11-16T22:51:08.392Z,10.00
2022-11-16T22:53:39.040Z,10.00
2022-11-16T22:56:10.151Z,10.00
2022-11-16T22:58:40.202Z,10.00
2022-11-16T23:01:10.052Z,9.90
2022-11-16T23:03:40.051Z,10.00
2022-11-16T23:06:09.651Z,10.00
2022-11-16T23:08:40.312Z,10.00
2022-11-16T23:11:29.190Z,10.00
2022-11-16T23:14:15.815Z,10.00
2022-11-16T23:16:45.163Z,10.10
2022-11-16T23:19:33.224Z,10.10
2022-11-16T23:22:19.848Z,10.10
2022-11-16T23:25:07.532Z,10.10
2022-11-16T23:27:42.616Z,10.10
2022-11-16T23:30:13.480Z,10.10
2022-11-16T23:32:43.086Z,10.10
2022-11-16T23:35:12.157Z,10.20
2022-11-16T23:37:57.533Z,10.20
2022-11-16T23:40:29.270Z,10.20
2022-11-16T23:43:16.281Z,10.20
2022-11-16T23:45:45.861Z,10.30
2022-11-16T23:48:17.388Z,10.30
2022-11-16T23:50:47.147Z,10.30
2022-11-16T23:53:15.991Z,10.30
2022-11-16T23:55:47.766Z,10.40
2022-11-16T23:58:16.753Z,10.40
